Nearby METAR Reports

 

EIDW - Dublin Airport, Ireland
Distance from station: ENE 79km
Updated: 23/04/2019 10:30
Mist, Mostly cloudy
Mist, Mostly cloudy
 Wind from NNE
Wind: NNE 11 km/h
Temperature: 12°C
Dew Point: 10°C
Humidity: 88%
Barometer: 997 hPa
Summary: Mist
Clouds: Mostly cloudy
Visibility: 4 km
Cloud details: Few Clouds 853 m
Partly cloudy 1524 m
Mostly cloudy 2438 m
2019/04/23 09:30 EIDW 230930Z 03006KT 350V060 4000 BR FEW028 SCT050 BKN080 12/10 Q0997 BECMG 9999
EIME - Casement (mil), Ireland
Distance from station: ENE 62km
Updated: 23/04/2019 10:30
Mostly cloudy
Mostly cloudy
 Wind from varies
Wind: varies 6 km/h
Temperature: 12°C
Dew Point: 10°C
Humidity: 88%
Barometer: 996 hPa
Clouds: Mostly cloudy
Visibility: 9 km
Cloud details: Few Clouds 549 m
Partly cloudy 2134 m
Mostly cloudy 2743 m
2019/04/23 09:30 EIME 230930Z VRB03KT 9000 FEW018 SCT070 BKN090 12/10 Q0996
EIWF - Waterford Arpt, Ireland
Distance from station: S 111km
Updated: 23/04/2019 10:30
Clear
Clear
 Wind from E
Wind: E 17 km/h
Barometer: 995 hPa
Summary: Clear
Visibility: greater than 10 km
2019/04/23 09:30 EIWF 230930Z 09009KT 060V130 CAVOK ///// Q0995 R03/1/////
 
EINN - Shannon Airport, Ireland
Distance from station: WSW 117km
Updated: 23/04/2019 10:30
Mostly cloudy
Mostly cloudy
 Wind from E
Wind: E 19 km/h
Temperature: 14°C
Dew Point: 9°C
Humidity: 72%
Barometer: 994 hPa
Clouds: Mostly cloudy
Visibility: 10 km
Cloud details: Few Clouds 1158 m
Mostly cloudy 1524 m
Mostly cloudy 3658 m
2019/04/23 09:30 EINN 230930Z 10010KT 9999 FEW038 BKN050 BKN120 14/09 Q0994 NOSIG
EIKN - Connaught Apt, Ireland
Distance from station: NW 127km
Updated: 23/04/2019 10:30
Mostly cloudy
Mostly cloudy
 Wind from ESE
Wind: ESE 20 km/h
Temperature: 13°C
Dew Point: 8°C
Humidity: 72%
Barometer: 996 hPa
Clouds: Mostly cloudy
Visibility: 10 km
Cloud details: Partly cloudy 1402 m
Mostly cloudy 3353 m
2019/04/23 09:30 EIKN 230930Z 12011KT 090V160 9999 SCT046 BKN110 13/08 Q0996 NOSIG
EISG - Sligo Arpt, Ireland
Distance from station: NNW 148km
Updated: 23/04/2019 10:30
Clear
Clear
 Wind from ESE
Wind: ESE 13 km/h
Temperature: 15°C
Dew Point: 8°C
Humidity: 63%
Barometer: 996 hPa
Summary: Clear
Visibility: greater than 10 km
2019/04/23 09:30 EISG 230930Z 11007KT CAVOK 15/08 Q0996
 
EICK - Cork Arpt/Corcai, Ireland
Distance from station: SSW 165km
Updated: 23/04/2019 10:30
Mostly cloudy
Mostly cloudy
 Wind from E
Wind: E 24 km/h
Temperature: 12°C
Dew Point: 9°C
Humidity: 82%
Barometer: 994 hPa
Clouds: Mostly cloudy
Visibility: 10 km
Cloud details: Few Clouds 1433 m
Mostly cloudy 1524 m
2019/04/23 09:30 EICK 230930Z 10013KT 9999 FEW047 BKN050 12/09 Q0994 NOSIG
EGAA - Belfast/Aldergro, United Kingdom
Distance from station: NNE 179km
Updated: 23/04/2019 10:20
Partly cloudy
Partly cloudy
 Wind from ENE
Wind: ENE 13 km/h
Temperature: 14°C
Dew Point: 9°C
Humidity: 72%
Barometer: 998 hPa
Clouds: Partly cloudy
Visibility: 9 km
2019/04/23 09:20 EGAA 230920Z 07007KT 9000 NSC 14/09 Q0998
EIKY - Kerry Arpt, Ireland
Distance from station: SW 182km
Updated: 23/04/2019 10:30
Mostly cloudy
Mostly cloudy
 Wind from ESE
Wind: ESE 15 km/h
Temperature: 14°C
Dew Point: 10°C
Humidity: 77%
Barometer: 993 hPa
Clouds: Mostly cloudy
Visibility: 10 km
Cloud details: Partly cloudy 914 m
Mostly cloudy 1158 m
2019/04/23 09:30 EIKY 230930Z 12008KT 9999 SCT030 BKN038 14/10 Q0993
 
EGAC - Belfast Harbour, United Kingdom
Distance from station: NNE 188km
Updated: 23/04/2019 10:20
Clear
Clear
 Wind from NNE
Wind: NNE 15 km/h
Temperature: 13°C
Dew Point: 9°C
Humidity: 77%
Barometer: 999 hPa
Clouds: Clear
Visibility: 8 km
2019/04/23 09:20 EGAC 230920Z AUTO 02008KT 8000 NCD 13/09 Q0999
EGOV - Valley Raf, United Kingdom
Distance from station: E 188km
Updated: 23/04/2019 09:50
Clear
Clear
 Wind from ENE
Wind: ENE 17 km/h
Temperature: 18°C
Dew Point: 10°C
Humidity: 60%
Barometer: 997 hPa
Summary: Clear
Visibility: greater than 10 km
2019/04/23 08:50 EGOV 230850Z 06009KT CAVOK 18/10 Q0997 BLU /NOSIG
EGNS - Isle Of Man/Rona, United Kingdom
Distance from station: ENE 207km
Updated: 23/04/2019 10:20
Clear
Clear
 Wind from ENE
Wind: ENE 19 km/h
Temperature: 16°C
Dew Point: 7°C
Humidity: 55%
Barometer: 998 hPa
Summary: Clear
Visibility: greater than 10 km
2019/04/23 09:20 EGNS 230920Z 06010KT CAVOK 16/07 Q0998 NOSIG